createdAt,value
2023-05-18T00:00:23.571Z,4.68
2023-05-18T00:02:53.371Z,5.03
2023-05-18T00:05:23.644Z,5.00
2023-05-18T00:07:53.468Z,5.20
2023-05-18T00:10:25.830Z,5.60
2023-05-18T00:12:55.728Z,5.13
2023-05-18T00:15:25.582Z,5.18
2023-05-18T00:17:55.400Z,5.10
2023-05-18T00:20:26.767Z,4.88
2023-05-18T00:22:56.904Z,5.50
2023-05-18T00:25:29.434Z,5.00
2023-05-18T00:27:59.510Z,5.00
2023-05-18T00:30:29.278Z,5.25
2023-05-18T00:32:59.744Z,5.60
2023-05-18T00:35:30.123Z,5.43
2023-05-18T00:38:00.144Z,5.50
2023-05-18T00:40:32.665Z,5.40
2023-05-18T00:43:02.890Z,5.30
2023-05-18T00:45:32.820Z,5.70
2023-05-18T00:48:02.840Z,5.10
2023-05-18T00:50:32.712Z,5.40
2023-05-18T00:53:02.630Z,5.00
2023-05-18T00:55:34.956Z,4.95
2023-05-18T00:58:05.607Z,6.13
2023-05-18T01:00:37.859Z,5.20
2023-05-18T01:03:10.605Z,5.85
2023-05-18T01:05:41.142Z,5.45
2023-05-18T01:08:11.010Z,5.60
2023-05-18T01:10:44.346Z,5.40
2023-05-18T01:13:18.702Z,5.72
2023-05-18T01:15:50.559Z,4.82
2023-05-18T01:18:31.848Z,5.55
2023-05-18T01:21:04.425Z,5.68
2023-05-18T01:23:48.963Z,5.57
2023-05-18T01:26:29.996Z,5.20
2023-05-18T01:29:02.688Z,5.60
2023-05-18T01:31:33.124Z,5.00
2023-05-18T01:34:05.593Z,5.40
2023-05-18T01:36:35.395Z,5.38
2023-05-18T01:39:05.569Z,5.50
2023-05-18T01:41:40.570Z,5.28
2023-05-18T01:44:15.932Z,5.75
2023-05-18T01:46:49.892Z,5.20
2023-05-18T01:49:21.825Z,6.05
2023-05-18T01:51:53.376Z,5.25
2023-05-18T01:54:25.352Z,5.78
2023-05-18T01:56:58.838Z,5.80
2023-05-18T01:59:28.990Z,5.70
2023-05-18T02:02:01.848Z,6.10
2023-05-18T02:04:31.880Z,6.40
2023-05-18T02:07:01.594Z,6.15
2023-05-18T02:09:32.901Z,5.70
2023-05-18T02:12:05.562Z,5.90
2023-05-18T02:14:35.604Z,6.75
2023-05-18T02:17:07.263Z,5.37
2023-05-18T02:19:38.406Z,5.80
2023-05-18T02:22:08.683Z,5.80
2023-05-18T02:24:39.135Z,5.60
2023-05-18T02:27:11.562Z,5.53
2023-05-18T02:29:41.282Z,6.10
2023-05-18T02:32:11.745Z,6.55
2023-05-18T02:34:42.395Z,6.72
2023-05-18T02:37:13.504Z,6.65
2023-05-18T02:39:43.249Z,6.00
2023-05-18T02:42:15.796Z,6.05
2023-05-18T02:44:45.689Z,6.25
2023-05-18T02:47:18.421Z,5.63
2023-05-18T02:49:48.279Z,7.22
2023-05-18T02:52:18.041Z,5.97
2023-05-18T02:54:47.740Z,7.13
2023-05-18T02:57:26.710Z,6.55
2023-05-18T03:00:13.046Z,7.47
2023-05-18T03:02:44.525Z,7.90
2023-05-18T03:05:16.649Z,6.80
2023-05-18T03:07:51.065Z,7.25
2023-05-18T03:10:23.101Z,7.28
2023-05-18T03:12:55.970Z,6.60
2023-05-18T03:15:25.952Z,7.90
2023-05-18T03:17:56.174Z,6.82
2023-05-18T03:20:26.604Z,7.00
2023-05-18T03:22:56.371Z,6.18
2023-05-18T03:25:27.338Z,6.72
2023-05-18T03:27:59.808Z,6.70
2023-05-18T03:30:29.790Z,6.93
2023-05-18T03:32:59.756Z,6.80
2023-05-18T03:35:29.910Z,7.78
2023-05-18T03:38:00.020Z,6.97
2023-05-18T03:40:30.358Z,7.85
2023-05-18T03:43:02.787Z,7.50
2023-05-18T03:45:33.468Z,7.30
2023-05-18T03:48:04.046Z,7.68
2023-05-18T03:50:34.151Z,7.55
2023-05-18T03:53:04.224Z,8.10
2023-05-18T03:55:33.935Z,7.28
2023-05-18T03:58:06.493Z,7.43
2023-05-18T04:00:36.561Z,8.80
2023-05-18T04:03:06.711Z,8.73
2023-05-18T04:05:36.759Z,14.93
2023-05-18T04:08:07.800Z,12.93
2023-05-18T04:10:37.550Z,15.20
2023-05-18T04:13:09.868Z,12.27
2023-05-18T04:15:39.972Z,8.75
2023-05-18T04:18:10.549Z,9.48
2023-05-18T04:20:41.713Z,8.57
2023-05-18T04:23:12.407Z,12.77
2023-05-18T04:25:42.250Z,13.40
2023-05-18T04:28:16.346Z,9.43
2023-05-18T04:30:46.253Z,10.10
2023-05-18T04:33:16.429Z,9.18
2023-05-18T04:35:47.600Z,12.70
2023-05-18T04:38:17.877Z,11.10
2023-05-18T04:40:47.785Z,12.93
2023-05-18T04:43:21.235Z,10.32
2023-05-18T04:45:51.516Z,12.48
2023-05-18T04:48:21.730Z,10.00
2023-05-18T04:50:54.417Z,8.90
2023-05-18T04:53:24.510Z,9.30
2023-05-18T04:55:54.809Z,8.38
2023-05-18T04:58:29.901Z,13.33
2023-05-18T05:01:00.465Z,14.52
2023-05-18T05:03:31.033Z,11.30
2023-05-18T05:06:01.008Z,10.00
2023-05-18T05:08:30.774Z,8.95
2023-05-18T05:11:00.466Z,9.30
2023-05-18T05:13:33.129Z,9.27
2023-05-18T05:16:02.982Z,10.43
2023-05-18T05:18:32.765Z,9.70
2023-05-18T05:21:02.692Z,10.38
2023-05-18T05:23:32.597Z,9.68
2023-05-18T05:26:02.335Z,10.10
2023-05-18T05:28:35.169Z,10.50
2023-05-18T05:31:05.007Z,10.63
2023-05-18T05:33:34.906Z,10.30
2023-05-18T05:36:05.368Z,10.13
2023-05-18T05:38:35.607Z,11.13
2023-05-18T05:41:05.440Z,11.43
2023-05-18T05:43:38.037Z,11.75
2023-05-18T05:46:08.364Z,10.70
2023-05-18T05:48:38.047Z,11.25
2023-05-18T05:51:07.844Z,10.70
2023-05-18T05:53:37.682Z,11.98
2023-05-18T05:56:08.529Z,11.90
2023-05-18T05:58:44.367Z,12.70
2023-05-18T06:01:14.107Z,12.30
2023-05-18T06:03:45.411Z,11.60
2023-05-18T06:06:16.252Z,13.05
2023-05-18T06:08:46.101Z,12.32
2023-05-18T06:11:16.366Z,10.85
2023-05-18T06:13:48.979Z,10.13
2023-05-18T06:16:18.763Z,11.35
2023-05-18T06:18:49.168Z,10.82
2023-05-18T06:21:19.188Z,10.13
2023-05-18T06:23:49.007Z,10.55
2023-05-18T06:26:32.150Z,10.20
2023-05-18T06:29:16.926Z,11.52
2023-05-18T06:32:07.282Z,9.10
2023-05-18T06:34:54.928Z,9.25
2023-05-18T06:37:24.995Z,9.90
2023-05-18T06:39:54.935Z,9.30
2023-05-18T06:42:24.708Z,9.52
2023-05-18T06:45:07.372Z,9.27
2023-05-18T06:47:57.362Z,8.32
2023-05-18T06:50:27.284Z,9.45
2023-05-18T06:52:57.096Z,8.55
2023-05-18T06:55:27.315Z,8.32
2023-05-18T06:57:58.370Z,8.40
2023-05-18T07:00:31.066Z,9.07
2023-05-18T07:03:01.889Z,8.63
2023-05-18T07:05:32.143Z,9.07
2023-05-18T07:08:02.062Z,8.93
2023-05-18T07:10:31.908Z,9.00
2023-05-18T07:13:01.601Z,8.80
2023-05-18T07:15:34.244Z,7.40
2023-05-18T07:18:04.516Z,8.77
2023-05-18T07:20:34.282Z,7.30
2023-05-18T07:23:04.091Z,7.53
2023-05-18T07:25:33.854Z,7.70
2023-05-18T07:28:03.632Z,7.07
2023-05-18T07:30:36.085Z,7.10
2023-05-18T07:33:05.889Z,6.90
2023-05-18T07:35:35.732Z,7.13
2023-05-18T07:38:05.434Z,6.67
2023-05-18T07:40:35.270Z,6.55
2023-05-18T07:43:06.109Z,6.10
2023-05-18T07:45:38.769Z,6.10
2023-05-18T07:48:08.667Z,5.93
2023-05-18T07:50:38.426Z,5.65
2023-05-18T07:53:08.156Z,5.38
2023-05-18T07:55:37.907Z,5.85
2023-05-18T07:58:07.590Z,6.67
2023-05-18T08:00:40.134Z,5.50
2023-05-18T08:03:09.967Z,5.43
2023-05-18T08:05:39.761Z,6.07
2023-05-18T08:08:12.220Z,5.25
2023-05-18T08:10:45.540Z,5.28
2023-05-18T08:13:17.049Z,5.50
2023-05-18T08:16:10.623Z,4.80
2023-05-18T08:18:42.381Z,6.18
2023-05-18T08:21:13.110Z,5.13
2023-05-18T08:23:43.470Z,5.03
2023-05-18T08:26:14.221Z,4.70
2023-05-18T08:28:45.442Z,4.35
2023-05-18T08:31:17.983Z,4.80
2023-05-18T08:33:47.893Z,4.55
2023-05-18T08:36:17.694Z,5.25
2023-05-18T08:38:47.461Z,4.50
2023-05-18T08:41:23.529Z,5.32
2023-05-18T08:43:57.292Z,4.47
2023-05-18T08:46:33.485Z,5.00
2023-05-18T08:49:04.976Z,5.00
2023-05-18T08:51:38.384Z,4.80
2023-05-18T08:54:08.700Z,5.10
2023-05-18T08:56:39.030Z,4.45
2023-05-18T08:59:10.472Z,4.93
2023-05-18T09:01:43.114Z,3.83
2023-05-18T09:04:13.673Z,4.13
2023-05-18T09:06:43.998Z,4.75
2023-05-18T09:09:14.127Z,4.10
2023-05-18T09:11:44.188Z,4.70
2023-05-18T09:14:14.057Z,4.07
2023-05-18T09:16:46.356Z,4.13
2023-05-18T09:19:16.540Z,4.18
2023-05-18T09:21:46.802Z,4.97
2023-05-18T09:24:16.670Z,4.57
2023-05-18T09:26:46.432Z,4.78
2023-05-18T09:29:20.365Z,4.90
2023-05-18T09:31:54.390Z,5.03
2023-05-18T09:34:24.810Z,4.80
2023-05-18T09:36:57.905Z,4.28
2023-05-18T09:39:27.748Z,4.10
2023-05-18T09:42:00.641Z,4.13
2023-05-18T09:44:34.297Z,4.82
2023-05-18T09:47:10.957Z,4.95
2023-05-18T09:49:40.948Z,4.60
2023-05-18T09:52:11.995Z,4.82
2023-05-18T09:54:42.806Z,5.00
2023-05-18T09:57:12.641Z,4.38
2023-05-18T09:59:42.324Z,4.50
2023-05-18T10:02:16.132Z,4.75
2023-05-18T10:04:46.438Z,4.63
2023-05-18T10:07:17.104Z,4.80
2023-05-18T10:09:48.312Z,5.00
2023-05-18T10:12:19.969Z,4.93
2023-05-18T10:14:49.990Z,4.20
2023-05-18T10:17:22.990Z,4.70
2023-05-18T10:19:55.874Z,3.97
2023-05-18T10:22:26.344Z,5.00
2023-05-18T10:24:57.027Z,4.30
2023-05-18T10:27:30.480Z,4.20
2023-05-18T10:30:03.925Z,4.47
2023-05-18T10:32:38.634Z,4.15
2023-05-18T10:35:09.727Z,4.78
2023-05-18T10:37:42.994Z,4.60
2023-05-18T10:40:14.185Z,4.90
2023-05-18T10:42:44.792Z,4.60
2023-05-18T10:45:14.935Z,5.00
2023-05-18T10:47:47.659Z,4.40
2023-05-18T10:50:18.034Z,3.72
2023-05-18T10:52:47.859Z,4.72
2023-05-18T10:55:17.690Z,4.20
2023-05-18T10:57:54.213Z,4.50
2023-05-18T11:00:24.343Z,5.28
2023-05-18T11:02:57.056Z,4.75
2023-05-18T11:05:27.295Z,4.57
2023-05-18T11:08:05.595Z,4.40
2023-05-18T11:10:37.670Z,4.80
2023-05-18T11:13:07.629Z,5.03
2023-05-18T11:16:08.078Z,5.00
2023-05-18T11:18:42.678Z,5.03
2023-05-18T11:21:54.837Z,5.32
2023-05-18T11:24:29.215Z,4.60
2023-05-18T11:27:00.524Z,4.50
2023-05-18T11:29:34.638Z,4.45
2023-05-18T11:32:05.390Z,4.45
2023-05-18T11:34:45.332Z,4.80
2023-05-18T11:37:16.229Z,4.60
2023-05-18T11:40:00.303Z,4.83
2023-05-18T11:42:35.070Z,4.70
2023-05-18T11:45:14.720Z,4.30
2023-05-18T11:47:44.494Z,4.60
2023-05-18T11:50:16.949Z,4.40
2023-05-18T11:52:51.272Z,4.38
2023-05-18T11:55:22.731Z,4.38
2023-05-18T11:57:55.031Z,4.30
2023-05-18T12:00:24.945Z,5.20
2023-05-18T12:02:59.692Z,4.78
2023-05-18T12:05:34.369Z,4.85
2023-05-18T12:08:04.162Z,5.22
2023-05-18T12:10:34.552Z,4.32
2023-05-18T12:13:04.998Z,4.50
2023-05-18T12:15:35.249Z,5.13
2023-05-18T12:18:05.028Z,4.80
2023-05-18T12:20:37.646Z,5.38
2023-05-18T12:23:07.492Z,4.80
2023-05-18T12:25:37.269Z,4.80
2023-05-18T12:28:08.063Z,4.80
2023-05-18T12:30:38.766Z,5.43
2023-05-18T12:33:08.481Z,4.67
2023-05-18T12:35:40.948Z,5.18
2023-05-18T12:38:11.878Z,4.80
2023-05-18T12:40:46.642Z,5.10
2023-05-18T12:43:16.562Z,6.10
2023-05-18T12:45:47.745Z,5.18
2023-05-18T12:48:17.749Z,5.70
2023-05-18T12:50:53.606Z,4.78
2023-05-18T12:53:24.232Z,4.90
2023-05-18T12:56:01.855Z,4.80
2023-05-18T12:58:33.087Z,4.17
2023-05-18T13:01:10.149Z,4.40
2023-05-18T13:03:42.551Z,4.75
2023-05-18T13:06:14.952Z,4.88
2023-05-18T13:08:45.117Z,4.10
2023-05-18T13:11:16.845Z,4.75
2023-05-18T13:14:02.370Z,4.40
2023-05-18T13:16:32.544Z,4.53
2023-05-18T13:19:03.364Z,4.60
2023-05-18T13:21:35.981Z,4.60
2023-05-18T13:24:06.016Z,4.50
2023-05-18T13:26:35.999Z,4.40
2023-05-18T13:29:05.777Z,4.40
2023-05-18T13:31:36.191Z,5.20
2023-05-18T13:34:06.200Z,3.97
2023-05-18T13:36:38.554Z,4.30
2023-05-18T13:39:08.472Z,5.27
2023-05-18T13:41:38.332Z,4.60
2023-05-18T13:44:08.529Z,4.63
2023-05-18T13:46:38.737Z,4.20
2023-05-18T13:49:08.475Z,4.43
2023-05-18T13:51:40.940Z,4.30
2023-05-18T13:54:10.770Z,4.18
2023-05-18T13:56:40.503Z,4.10
2023-05-18T13:59:10.222Z,4.15
2023-05-18T14:01:42.607Z,3.97
2023-05-18T14:04:12.554Z,4.60
2023-05-18T14:06:44.839Z,4.30
2023-05-18T14:09:14.597Z,4.15
2023-05-18T14:11:44.284Z,4.60
2023-05-18T14:14:14.032Z,4.05
2023-05-18T14:16:43.809Z,4.45
2023-05-18T14:19:13.580Z,4.00
2023-05-18T14:21:45.990Z,3.78
2023-05-18T14:24:15.934Z,3.60
2023-05-18T14:26:45.739Z,3.90
2023-05-18T14:29:15.550Z,4.07
2023-05-18T14:31:45.227Z,4.40
2023-05-18T14:34:14.951Z,4.13
2023-05-18T14:36:47.302Z,3.83
2023-05-18T14:39:17.075Z,3.75
2023-05-18T14:41:46.779Z,4.63
2023-05-18T14:44:16.693Z,3.40
2023-05-18T14:46:47.339Z,3.30
2023-05-18T14:49:17.100Z,4.10
2023-05-18T14:51:49.736Z,3.60
2023-05-18T14:54:19.621Z,3.80
2023-05-18T14:56:49.360Z,3.53
2023-05-18T14:59:19.085Z,3.90
2023-05-18T15:01:48.821Z,4.70
2023-05-18T15:04:19.385Z,4.38
2023-05-18T15:06:52.422Z,4.63
2023-05-18T15:09:23.598Z,4.55
2023-05-18T15:11:55.842Z,4.00
2023-05-18T15:14:25.841Z,4.07
2023-05-18T15:16:55.577Z,3.85
2023-05-18T15:19:25.493Z,3.72
2023-05-18T15:21:57.879Z,3.40
2023-05-18T15:24:27.738Z,3.72
2023-05-18T15:26:57.614Z,4.10
2023-05-18T15:29:28.193Z,3.63
2023-05-18T15:31:57.969Z,4.30
2023-05-18T15:34:28.104Z,3.40
2023-05-18T15:37:00.569Z,3.70
2023-05-18T15:39:31.695Z,4.95
2023-05-18T15:42:01.572Z,4.10
2023-05-18T15:44:31.394Z,3.88
2023-05-18T15:47:01.116Z,3.43
2023-05-18T15:49:30.785Z,3.88
2023-05-18T15:52:03.139Z,4.00
2023-05-18T15:54:32.981Z,3.85
2023-05-18T15:57:02.803Z,3.60
2023-05-18T15:59:32.467Z,3.38
2023-05-18T16:02:02.199Z,3.33
2023-05-18T16:04:31.970Z,3.50
2023-05-18T16:07:04.501Z,3.80
2023-05-18T16:09:34.344Z,3.78
2023-05-18T16:12:04.031Z,3.85
2023-05-18T16:14:33.746Z,4.15
2023-05-18T16:17:04.079Z,3.38
2023-05-18T16:19:34.164Z,3.42
2023-05-18T16:22:09.086Z,3.20
2023-05-18T16:24:40.356Z,3.77
2023-05-18T16:27:10.172Z,4.13
2023-05-18T16:29:41.561Z,3.80
2023-05-18T16:32:11.370Z,3.50
2023-05-18T16:34:41.328Z,3.73
2023-05-18T16:37:13.655Z,4.35
2023-05-18T16:39:43.426Z,4.28
2023-05-18T16:42:13.491Z,3.97
2023-05-18T16:44:43.258Z,3.45
2023-05-18T16:47:13.001Z,3.35
2023-05-18T16:49:45.414Z,4.00
2023-05-18T16:52:18.565Z,3.50
2023-05-18T16:54:48.636Z,4.80
2023-05-18T16:57:18.776Z,3.45
2023-05-18T16:59:49.047Z,3.42
2023-05-18T17:02:19.153Z,3.30
2023-05-18T17:04:49.971Z,3.75
2023-05-18T17:07:22.852Z,4.07
2023-05-18T17:09:52.590Z,3.75
2023-05-18T17:12:22.398Z,3.70
2023-05-18T17:14:52.334Z,4.10
2023-05-18T17:17:22.214Z,3.83
2023-05-18T17:19:51.969Z,3.50
2023-05-18T17:22:24.364Z,4.18
2023-05-18T17:24:54.151Z,4.05
2023-05-18T17:27:24.435Z,4.10
2023-05-18T17:29:54.116Z,3.90
2023-05-18T17:32:23.934Z,3.80
2023-05-18T17:34:53.726Z,3.90
2023-05-18T17:37:26.173Z,3.70
2023-05-18T17:39:56.009Z,3.77
2023-05-18T17:42:25.751Z,3.67
2023-05-18T17:44:55.663Z,3.40
2023-05-18T17:47:25.407Z,3.20
2023-05-18T17:49:55.151Z,4.27
2023-05-18T17:52:27.554Z,3.38
2023-05-18T17:54:57.357Z,4.65
2023-05-18T17:57:28.204Z,3.50
2023-05-18T17:59:59.539Z,4.03
2023-05-18T18:02:29.796Z,4.07
2023-05-18T18:05:00.038Z,4.05
2023-05-18T18:07:32.700Z,3.22
2023-05-18T18:10:02.628Z,4.30
2023-05-18T18:12:32.352Z,6.65
2023-05-18T18:15:02.139Z,3.70
2023-05-18T18:17:32.006Z,4.28
2023-05-18T18:20:01.962Z,4.10
2023-05-18T18:22:35.854Z,4.20
2023-05-18T18:25:05.953Z,3.72
2023-05-18T18:27:35.720Z,3.60
2023-05-18T18:30:05.515Z,4.00
2023-05-18T18:32:35.390Z,3.40
2023-05-18T18:35:05.230Z,3.95
2023-05-18T18:37:37.784Z,3.42
2023-05-18T18:40:09.609Z,4.43
2023-05-18T18:42:39.379Z,4.43
2023-05-18T18:45:10.557Z,3.90
2023-05-18T18:47:40.667Z,3.60
2023-05-18T18:50:11.472Z,4.00
2023-05-18T18:52:43.848Z,4.30
2023-05-18T18:55:13.645Z,3.80
2023-05-18T18:57:43.547Z,4.35
2023-05-18T19:00:14.747Z,4.47
2023-05-18T19:02:44.866Z,4.50
2023-05-18T19:05:15.159Z,4.10
2023-05-18T19:07:49.361Z,4.40
2023-05-18T19:10:19.628Z,4.40
2023-05-18T19:12:49.458Z,4.60
2023-05-18T19:15:21.688Z,4.35
2023-05-18T19:17:54.185Z,4.80
2023-05-18T19:20:25.109Z,4.97
2023-05-18T19:22:57.575Z,4.20
2023-05-18T19:25:29.938Z,4.50
2023-05-18T19:28:00.290Z,4.80
2023-05-18T19:30:30.147Z,5.17
2023-05-18T19:32:59.864Z,4.50
2023-05-18T19:35:31.363Z,4.40
2023-05-18T19:38:04.898Z,4.40
2023-05-18T19:40:36.814Z,4.60
2023-05-18T19:43:06.543Z,4.93
2023-05-18T19:45:36.614Z,4.32
2023-05-18T19:48:06.824Z,4.70
2023-05-18T19:50:36.788Z,5.18
2023-05-18T19:53:09.088Z,4.97
2023-05-18T19:55:38.886Z,4.40
2023-05-18T19:58:08.633Z,4.25
2023-05-18T20:00:41.414Z,4.80
2023-05-18T20:03:11.207Z,4.33
2023-05-18T20:05:41.033Z,4.50
2023-05-18T20:08:13.517Z,4.30
2023-05-18T20:10:44.543Z,4.60
2023-05-18T20:13:14.965Z,3.70
2023-05-18T20:15:44.709Z,4.10
2023-05-18T20:18:14.552Z,4.43
2023-05-18T20:20:44.374Z,3.88
2023-05-18T20:23:19.486Z,4.80
2023-05-18T20:25:50.964Z,4.73
2023-05-18T20:28:20.888Z,4.72
2023-05-18T20:30:50.946Z,4.80
2023-05-18T20:33:21.112Z,5.20
2023-05-18T20:35:52.004Z,5.60
2023-05-18T20:38:26.132Z,5.50
2023-05-18T20:40:58.123Z,5.63
2023-05-18T20:43:27.977Z,5.70
2023-05-18T20:45:57.662Z,5.80
2023-05-18T20:48:29.087Z,5.30
2023-05-18T20:50:58.862Z,4.80
2023-05-18T20:53:31.164Z,4.80
2023-05-18T20:56:01.354Z,4.70
2023-05-18T20:58:34.268Z,4.85
2023-05-18T21:01:07.254Z,4.72
2023-05-18T21:03:38.649Z,4.10
2023-05-18T21:06:08.721Z,5.00
2023-05-18T21:08:41.100Z,4.75
2023-05-18T21:11:10.886Z,4.90
2023-05-18T21:13:40.612Z,4.03
2023-05-18T21:16:10.886Z,4.80
2023-05-18T21:18:40.723Z,4.40
2023-05-18T21:21:10.547Z,4.00
2023-05-18T21:23:42.800Z,4.35
2023-05-18T21:26:12.556Z,4.50
2023-05-18T21:28:42.474Z,4.30
2023-05-18T21:31:12.239Z,4.35
2023-05-18T21:33:42.123Z,4.50
2023-05-18T21:36:12.566Z,4.60
2023-05-18T21:38:44.940Z,5.10
2023-05-18T21:41:14.696Z,4.88
2023-05-18T21:43:44.416Z,4.60
2023-05-18T21:46:14.253Z,4.70
2023-05-18T21:48:43.971Z,4.75
2023-05-18T21:51:14.193Z,5.40
2023-05-18T21:53:46.561Z,4.63
2023-05-18T21:56:16.327Z,5.50
2023-05-18T21:58:46.044Z,5.10
2023-05-18T22:01:19.757Z,4.83
2023-05-18T22:03:49.727Z,4.72
2023-05-18T22:06:20.301Z,5.50
2023-05-18T22:08:53.574Z,5.45
2023-05-18T22:11:23.327Z,4.70
2023-05-18T22:13:53.053Z,5.40
2023-05-18T22:16:22.779Z,4.90
2023-05-18T22:18:52.479Z,6.30
2023-05-18T22:21:22.328Z,4.70
2023-05-18T22:23:54.601Z,6.88
2023-05-18T22:26:24.392Z,5.18
2023-05-18T22:28:54.282Z,5.50
2023-05-18T22:31:24.056Z,6.13
2023-05-18T22:33:54.186Z,5.70
2023-05-18T22:36:24.588Z,5.97
2023-05-18T22:38:57.501Z,5.53
2023-05-18T22:41:27.423Z,5.60
2023-05-18T22:43:57.155Z,5.78
2023-05-18T22:46:26.857Z,6.47
2023-05-18T22:48:56.588Z,5.15
2023-05-18T22:51:26.373Z,6.30
2023-05-18T22:53:58.766Z,5.40
2023-05-18T22:56:28.600Z,5.87
2023-05-18T22:58:58.291Z,6.65
2023-05-18T23:01:28.116Z,6.50
2023-05-18T23:03:57.846Z,6.30
2023-05-18T23:06:27.603Z,5.82
2023-05-18T23:09:00.551Z,6.47
2023-05-18T23:11:31.148Z,6.10
2023-05-18T23:14:02.950Z,5.78
2023-05-18T23:16:32.945Z,6.40
2023-05-18T23:19:02.943Z,5.93
2023-05-18T23:21:33.587Z,6.20
2023-05-18T23:24:06.530Z,6.32
2023-05-18T23:26:36.747Z,6.47
2023-05-18T23:29:06.610Z,5.85
2023-05-18T23:31:36.414Z,6.40
2023-05-18T23:34:06.770Z,6.10
2023-05-18T23:36:37.747Z,6.60
2023-05-18T23:39:10.963Z,7.35
2023-05-18T23:41:41.199Z,6.50
2023-05-18T23:44:11.560Z,6.10
2023-05-18T23:46:42.377Z,6.40
2023-05-18T23:49:12.704Z,6.60
2023-05-18T23:51:42.955Z,7.05
2023-05-18T23:54:16.377Z,7.03
2023-05-18T23:56:47.061Z,7.57
2023-05-18T23:59:18.128Z,7.40
